createdAt,value
2022-11-10T00:02:14.693Z,1.10
2022-11-10T00:04:42.569Z,1.30
2022-11-10T00:07:10.484Z,1.08
2022-11-10T00:09:39.764Z,1.23
2022-11-10T00:12:07.709Z,1.35
2022-11-10T00:14:53.216Z,0.93
2022-11-10T00:17:21.064Z,1.30
2022-11-10T00:19:48.947Z,2.03
2022-11-10T00:22:16.820Z,1.13
2022-11-10T00:24:47.034Z,1.17
2022-11-10T00:27:15.631Z,1.33
2022-11-10T00:29:43.541Z,1.30
2022-11-10T00:32:11.511Z,1.15
2022-11-10T00:34:39.442Z,1.50
2022-11-10T00:37:07.396Z,1.60
2022-11-10T00:39:35.355Z,1.30
2022-11-10T00:42:04.776Z,1.63
2022-11-10T00:44:32.669Z,1.45
2022-11-10T00:47:00.729Z,1.55
2022-11-10T00:49:28.698Z,1.70
2022-11-10T00:51:57.721Z,1.65
2022-11-10T00:54:25.833Z,1.58
2022-11-10T00:56:53.774Z,2.05
2022-11-10T00:59:23.030Z,1.60
2022-11-10T01:01:50.983Z,1.90
2022-11-10T01:04:18.912Z,1.23
2022-11-10T01:06:47.944Z,1.60
2022-11-10T01:09:16.104Z,2.50
2022-11-10T01:11:44.091Z,1.35
2022-11-10T01:14:12.058Z,1.83
2022-11-10T01:16:41.261Z,1.70
2022-11-10T01:19:09.314Z,1.75
2022-11-10T01:21:37.298Z,1.42
2022-11-10T01:24:05.457Z,1.40
2022-11-10T01:26:33.877Z,1.67
2022-11-10T01:29:01.789Z,1.67
2022-11-10T01:31:29.712Z,1.88
2022-11-10T01:34:00.046Z,1.50
2022-11-10T01:36:28.133Z,2.17
2022-11-10T01:38:56.016Z,1.83
2022-11-10T01:41:24.111Z,1.30
2022-11-10T01:43:52.082Z,1.55
2022-11-10T01:46:19.949Z,1.55
2022-11-10T01:48:52.158Z,1.58
2022-11-10T01:51:25.693Z,1.83
2022-11-10T01:53:58.504Z,1.63
2022-11-10T01:56:29.657Z,1.88
2022-11-10T01:59:00.813Z,1.80
2022-11-10T02:01:28.915Z,1.30
2022-11-10T02:04:00.546Z,1.73
2022-11-10T02:06:32.410Z,1.95
2022-11-10T02:09:01.356Z,2.08
2022-11-10T02:11:30.274Z,1.70
2022-11-10T02:13:58.518Z,2.20
2022-11-10T02:16:26.539Z,1.90
2022-11-10T02:18:54.455Z,2.05
2022-11-10T02:21:23.825Z,2.50
2022-11-10T02:23:53.263Z,2.75
2022-11-10T02:26:25.091Z,2.38
2022-11-10T02:28:52.974Z,2.45
2022-11-10T02:31:20.902Z,2.20
2022-11-10T02:33:48.768Z,2.10
2022-11-10T02:36:16.644Z,2.50
2022-11-10T02:38:46.044Z,2.00
2022-11-10T02:41:13.977Z,2.15
2022-11-10T02:43:42.227Z,2.55
2022-11-10T02:46:10.151Z,2.40
2022-11-10T02:48:38.091Z,2.35
2022-11-10T02:51:06.099Z,2.03
2022-11-10T02:53:33.996Z,2.85
2022-11-10T02:56:03.258Z,2.13
2022-11-10T02:58:31.168Z,2.63
2022-11-10T03:00:59.189Z,2.92
2022-11-10T03:03:27.305Z,2.67
2022-11-10T03:05:55.190Z,2.00
2022-11-10T03:08:23.316Z,2.58
2022-11-10T03:10:54.549Z,2.22
2022-11-10T03:13:24.878Z,2.53
2022-11-10T03:15:53.071Z,2.20
2022-11-10T03:18:20.974Z,2.67
2022-11-10T03:20:50.257Z,2.55
2022-11-10T03:23:18.625Z,2.80
2022-11-10T03:25:47.062Z,2.30
2022-11-10T03:28:15.319Z,2.20
2022-11-10T03:30:44.709Z,2.50
2022-11-10T03:33:12.671Z,2.22
2022-11-10T03:35:40.634Z,2.47
2022-11-10T03:38:08.588Z,3.25
2022-11-10T03:40:50.739Z,2.55
2022-11-10T03:43:24.680Z,3.00
2022-11-10T03:45:54.106Z,2.65
2022-11-10T03:48:22.050Z,2.10
2022-11-10T03:50:50.013Z,2.38
2022-11-10T03:53:17.892Z,2.53
2022-11-10T03:55:45.810Z,2.50
2022-11-10T03:58:13.718Z,2.70
2022-11-10T04:00:42.029Z,2.58
2022-11-10T04:03:12.055Z,2.22
2022-11-10T04:05:57.336Z,1.92
2022-11-10T04:08:42.774Z,2.03
2022-11-10T04:11:10.669Z,2.80
2022-11-10T04:13:56.123Z,2.33
2022-11-10T04:16:24.031Z,2.53
2022-11-10T04:18:53.304Z,2.45
2022-11-10T04:21:21.240Z,2.60
2022-11-10T04:23:49.202Z,2.50
2022-11-10T04:26:33.600Z,2.97
2022-11-10T04:29:03.161Z,2.83
2022-11-10T04:31:32.631Z,3.05
2022-11-10T04:34:01.966Z,3.55
2022-11-10T04:36:31.932Z,2.90
2022-11-10T04:39:00.116Z,2.95
2022-11-10T04:41:30.059Z,3.08
2022-11-10T04:43:58.441Z,2.85
2022-11-10T04:46:28.946Z,3.33
2022-11-10T04:48:57.605Z,2.45
2022-11-10T04:51:29.508Z,2.20
2022-11-10T04:53:57.873Z,2.97
2022-11-10T04:56:26.770Z,3.33
2022-11-10T04:58:55.343Z,2.47
2022-11-10T05:01:25.527Z,3.13
2022-11-10T05:03:54.070Z,5.03
2022-11-10T05:06:22.533Z,3.47
2022-11-10T05:08:52.466Z,3.28
2022-11-10T05:11:20.567Z,3.28
2022-11-10T05:13:48.500Z,2.88
2022-11-10T05:16:16.389Z,2.70
2022-11-10T05:18:44.321Z,2.90
2022-11-10T05:21:12.232Z,2.75
2022-11-10T05:23:40.386Z,3.60
2022-11-10T05:26:11.791Z,3.28
2022-11-10T05:28:40.196Z,2.88
2022-11-10T05:31:08.493Z,2.95
2022-11-10T05:33:37.948Z,2.60
2022-11-10T05:36:07.455Z,2.65
2022-11-10T05:38:40.272Z,3.03
2022-11-10T05:41:12.562Z,4.00
2022-11-10T05:43:40.561Z,3.30
2022-11-10T05:46:08.493Z,3.90
2022-11-10T05:48:36.431Z,2.97
2022-11-10T05:51:04.616Z,3.28
2022-11-10T05:53:32.533Z,3.15
2022-11-10T05:56:00.441Z,3.35
2022-11-10T05:58:29.779Z,3.70
2022-11-10T06:00:58.167Z,2.95
2022-11-10T06:03:26.440Z,3.10
2022-11-10T06:05:54.663Z,4.90
2022-11-10T06:08:22.551Z,3.40
2022-11-10T06:10:50.543Z,2.72
2022-11-10T06:13:18.465Z,3.17
2022-11-10T06:15:50.571Z,3.58
2022-11-10T06:18:18.879Z,2.97
2022-11-10T06:20:47.315Z,2.58
2022-11-10T06:23:16.029Z,2.60
2022-11-10T06:25:44.757Z,2.70
2022-11-10T06:28:12.871Z,7.90
2022-11-10T06:30:40.929Z,5.30
2022-11-10T06:33:10.553Z,3.08
2022-11-10T06:35:38.554Z,3.20
2022-11-10T06:38:08.328Z,2.88
2022-11-10T06:40:36.269Z,3.17
2022-11-10T06:43:04.282Z,3.63
2022-11-10T06:45:32.286Z,4.43
2022-11-10T06:48:01.401Z,3.25
2022-11-10T06:50:30.981Z,3.65
2022-11-10T06:53:00.146Z,3.22
2022-11-10T06:55:28.894Z,3.55
2022-11-10T06:57:57.531Z,3.60
2022-11-10T07:00:25.900Z,4.18
2022-11-10T07:03:00.897Z,3.20
2022-11-10T07:05:30.688Z,4.00
2022-11-10T07:08:03.176Z,4.15
2022-11-10T07:10:31.075Z,4.15
2022-11-10T07:12:59.378Z,4.93
2022-11-10T07:15:27.433Z,3.55
2022-11-10T07:17:55.726Z,4.70
2022-11-10T07:20:23.855Z,3.47
2022-11-10T07:22:58.216Z,3.45
2022-11-10T07:25:26.361Z,2.83
2022-11-10T07:27:57.210Z,3.47
2022-11-10T07:30:26.577Z,3.25
2022-11-10T07:33:01.817Z,2.95
2022-11-10T07:35:30.756Z,3.25
2022-11-10T07:38:03.307Z,3.20
2022-11-10T07:40:32.054Z,3.25
2022-11-10T07:43:00.083Z,3.08
2022-11-10T07:45:28.691Z,3.20
2022-11-10T07:48:01.251Z,3.22
2022-11-10T07:50:29.659Z,3.63
2022-11-10T07:53:05.789Z,3.03
2022-11-10T07:55:34.132Z,4.07
2022-11-10T07:58:02.055Z,3.15
2022-11-10T08:00:29.928Z,3.45
2022-11-10T08:03:02.790Z,3.17
2022-11-10T08:05:30.757Z,4.00
2022-11-10T08:08:00.083Z,3.30
2022-11-10T08:10:29.843Z,2.90
2022-11-10T08:12:59.062Z,3.20
2022-11-10T08:15:28.696Z,2.83
2022-11-10T08:18:00.236Z,3.40
2022-11-10T08:20:28.257Z,3.40
2022-11-10T08:23:00.500Z,3.10
2022-11-10T08:25:34.729Z,3.60
2022-11-10T08:28:06.506Z,2.97
2022-11-10T08:30:36.166Z,3.28
2022-11-10T08:33:05.909Z,2.97
2022-11-10T08:35:38.693Z,2.50
2022-11-10T08:38:09.659Z,2.63
2022-11-10T08:40:39.531Z,2.58
2022-11-10T08:43:08.453Z,2.88
2022-11-10T08:45:36.567Z,2.40
2022-11-10T08:48:06.586Z,3.10
2022-11-10T08:50:35.085Z,2.78
2022-11-10T08:53:04.357Z,3.13
2022-11-10T08:55:32.468Z,2.50
2022-11-10T08:58:02.654Z,2.90
2022-11-10T09:00:31.542Z,2.85
2022-11-10T09:03:05.875Z,2.45
2022-11-10T09:05:33.818Z,2.85
2022-11-10T09:08:01.693Z,2.70
2022-11-10T09:10:29.588Z,2.53
2022-11-10T09:13:02.113Z,2.13
2022-11-10T09:15:30.725Z,2.40
2022-11-10T09:17:59.581Z,1.92
2022-11-10T09:20:28.227Z,2.35
2022-11-10T09:22:56.838Z,2.10
2022-11-10T09:25:25.047Z,2.05
2022-11-10T09:27:52.981Z,1.75
2022-11-10T09:30:22.634Z,1.80
2022-11-10T09:32:55.078Z,1.88
2022-11-10T09:35:23.527Z,1.77
2022-11-10T09:37:51.631Z,1.83
2022-11-10T09:40:24.300Z,1.92
2022-11-10T09:42:55.987Z,1.88
2022-11-10T09:45:28.672Z,2.08
2022-11-10T09:48:01.700Z,2.30
2022-11-10T09:50:37.277Z,1.98
2022-11-10T09:53:13.490Z,2.28
2022-11-10T09:55:45.537Z,1.67
2022-11-10T09:58:14.638Z,1.83
2022-11-10T10:00:49.693Z,1.80
2022-11-10T10:03:25.229Z,1.70
2022-11-10T10:06:06.310Z,1.27
2022-11-10T10:08:46.647Z,1.50
2022-11-10T10:11:27.907Z,1.63
2022-11-10T10:14:09.133Z,1.50
2022-11-10T10:16:45.636Z,1.45
2022-11-10T10:19:27.069Z,1.70
2022-11-10T10:22:14.172Z,1.15
2022-11-10T10:24:42.213Z,1.40
2022-11-10T10:27:13.418Z,1.75
2022-11-10T10:29:44.887Z,1.63
2022-11-10T10:32:15.792Z,1.10
2022-11-10T10:34:45.375Z,1.20
2022-11-10T10:37:24.197Z,1.10
2022-11-10T10:39:55.866Z,1.30
2022-11-10T10:42:32.007Z,0.73
2022-11-10T10:45:22.237Z,1.00
2022-11-10T10:47:53.959Z,1.27
2022-11-10T10:50:28.473Z,1.30
2022-11-10T10:53:13.888Z,1.20
2022-11-10T10:55:48.046Z,1.10
2022-11-10T10:58:27.714Z,0.98
2022-11-10T11:01:02.201Z,1.52
2022-11-10T11:03:39.959Z,1.20
2022-11-10T11:06:19.138Z,1.80
2022-11-10T11:08:59.928Z,0.95
2022-11-10T11:11:30.873Z,1.08
2022-11-10T11:14:21.028Z,1.20
2022-11-10T11:16:51.364Z,1.10
2022-11-10T11:19:22.151Z,1.20
2022-11-10T11:22:26.845Z,1.05
2022-11-10T11:24:59.990Z,1.00
2022-11-10T11:27:33.820Z,1.20
2022-11-10T11:30:10.092Z,0.85
2022-11-10T11:33:06.661Z,1.10
2022-11-10T11:35:43.982Z,1.90
2022-11-10T11:38:15.123Z,1.02
2022-11-10T11:40:53.630Z,1.00
2022-11-10T11:43:40.641Z,1.10
2022-11-10T11:46:18.823Z,1.13
2022-11-10T11:51:29.369Z,1.00
2022-11-10T11:54:18.416Z,0.90
2022-11-10T11:56:48.792Z,1.08
2022-11-10T11:59:41.342Z,1.10
2022-11-10T12:02:29.105Z,1.10
2022-11-10T12:05:07.949Z,1.08
2022-11-10T12:07:50.165Z,1.10
2022-11-10T12:10:35.716Z,0.95
2022-11-10T12:13:30.510Z,1.20
2022-11-10T12:16:02.800Z,1.95
2022-11-10T12:18:34.393Z,0.93
2022-11-10T12:21:21.599Z,1.17
2022-11-10T12:24:16.273Z,1.02
2022-11-10T12:26:52.404Z,1.02
2022-11-10T12:29:28.842Z,1.10
2022-11-10T12:32:04.177Z,0.90
2022-11-10T12:34:40.666Z,0.88
2022-11-10T12:37:15.491Z,0.70
2022-11-10T12:39:51.252Z,0.77
2022-11-10T12:42:23.038Z,0.93
2022-11-10T12:45:01.361Z,1.00
2022-11-10T12:47:35.069Z,1.50
2022-11-10T12:50:22.907Z,1.48
2022-11-10T12:52:55.948Z,1.35
2022-11-10T12:55:36.858Z,1.05
2022-11-10T12:58:06.813Z,0.90
2022-11-10T13:00:40.732Z,1.30
2022-11-10T13:03:15.927Z,1.23
2022-11-10T13:05:45.705Z,1.10
2022-11-10T13:08:32.952Z,0.88
2022-11-10T13:11:06.316Z,1.13
2022-11-10T13:13:46.497Z,1.15
2022-11-10T13:16:54.032Z,1.05
2022-11-10T13:19:55.894Z,1.23
2022-11-10T13:22:42.847Z,1.13
2022-11-10T13:26:02.502Z,1.13
2022-11-10T13:29:00.943Z,1.10
2022-11-10T13:31:52.113Z,1.38
2022-11-10T13:34:31.526Z,1.10
2022-11-10T13:36:59.925Z,0.70
2022-11-10T13:39:30.619Z,0.77
2022-11-10T13:42:03.928Z,0.93
2022-11-10T13:44:36.474Z,1.10
2022-11-10T13:47:34.856Z,1.25
2022-11-10T13:50:19.542Z,1.23
2022-11-10T13:52:59.984Z,1.88
2022-11-10T13:55:48.305Z,1.35
2022-11-10T13:58:25.541Z,1.80
2022-11-10T14:01:26.154Z,1.92
2022-11-10T14:04:00.418Z,1.05
2022-11-10T14:06:38.454Z,1.13
2022-11-10T14:09:12.396Z,2.03
2022-11-10T14:11:49.523Z,1.10
2022-11-10T14:14:22.952Z,1.15
2022-11-10T14:16:54.014Z,1.35
2022-11-10T14:19:32.413Z,1.00
2022-11-10T14:22:04.515Z,1.30
2022-11-10T14:24:37.533Z,1.00
2022-11-10T14:27:09.480Z,1.30
2022-11-10T14:29:39.923Z,1.17
2022-11-10T14:32:16.077Z,1.20
2022-11-10T14:34:48.475Z,1.20
2022-11-10T14:37:22.785Z,1.13
2022-11-10T14:39:53.561Z,1.30
2022-11-10T14:42:25.338Z,0.80
2022-11-10T14:45:07.806Z,1.05
2022-11-10T14:47:37.684Z,1.63
2022-11-10T14:50:17.935Z,1.10
2022-11-10T14:52:48.642Z,1.00
2022-11-10T14:55:20.894Z,0.93
2022-11-10T14:57:51.978Z,1.70
2022-11-10T15:00:26.195Z,1.38
2022-11-10T15:02:58.059Z,0.90
2022-11-10T15:05:26.303Z,1.00
2022-11-10T15:07:56.627Z,1.00
2022-11-10T15:10:26.913Z,1.23
2022-11-10T15:13:03.348Z,1.27
2022-11-10T15:15:31.487Z,1.20
2022-11-10T15:18:00.792Z,1.30
2022-11-10T15:20:38.014Z,1.02
2022-11-10T15:23:16.560Z,1.00
2022-11-10T15:25:46.975Z,1.17
2022-11-10T15:28:28.164Z,0.98
2022-11-10T15:30:58.646Z,1.08
2022-11-10T15:33:30.868Z,1.27
2022-11-10T15:36:15.303Z,2.58
2022-11-10T15:38:43.208Z,1.10
2022-11-10T15:41:16.281Z,1.40
2022-11-10T15:43:44.224Z,1.27
2022-11-10T15:46:18.109Z,1.48
2022-11-10T15:48:49.885Z,1.20
2022-11-10T15:51:25.869Z,1.83
2022-11-10T15:53:55.216Z,1.40
2022-11-10T15:56:25.287Z,1.27
2022-11-10T15:58:59.262Z,1.50
2022-11-10T16:01:31.334Z,1.20
2022-11-10T16:04:00.690Z,1.35
2022-11-10T16:06:30.647Z,2.63
2022-11-10T16:08:58.668Z,12.93
2022-11-10T16:11:26.973Z,9.38
2022-11-10T16:13:56.174Z,15.00
2022-11-10T16:16:24.442Z,10.90
2022-11-10T16:18:52.912Z,9.90
2022-11-10T16:21:24.537Z,11.85
2022-11-10T16:23:53.320Z,11.25
2022-11-10T16:26:23.697Z,6.10
2022-11-10T16:28:52.325Z,4.70
2022-11-10T16:31:22.455Z,4.30
2022-11-10T16:33:50.731Z,5.78
2022-11-10T16:36:25.816Z,5.00
2022-11-10T16:38:54.691Z,4.32
2022-11-10T16:41:23.069Z,3.45
2022-11-10T16:43:51.277Z,3.85
2022-11-10T16:46:22.693Z,4.13
2022-11-10T16:48:53.598Z,3.70
2022-11-10T16:51:29.879Z,3.60
2022-11-10T16:53:59.412Z,3.63
2022-11-10T16:56:27.525Z,4.00
2022-11-10T16:58:55.659Z,2.92
2022-11-10T17:01:27.390Z,3.38
2022-11-10T17:03:58.252Z,3.30
2022-11-10T17:06:29.376Z,3.20
2022-11-10T17:09:00.916Z,2.70
2022-11-10T17:11:28.772Z,3.10
2022-11-10T17:13:56.668Z,3.53
2022-11-10T17:16:28.644Z,3.38
2022-11-10T17:18:57.362Z,3.38
2022-11-10T17:21:31.572Z,3.58
2022-11-10T17:24:01.793Z,3.65
2022-11-10T17:26:30.557Z,3.88
2022-11-10T17:28:58.605Z,3.47
2022-11-10T17:31:26.585Z,4.05
2022-11-10T17:33:54.940Z,4.30
2022-11-10T17:36:24.157Z,4.47
2022-11-10T17:38:53.568Z,5.40
2022-11-10T17:41:22.004Z,6.35
2022-11-10T17:43:49.955Z,6.55
2022-11-10T17:46:17.920Z,5.85
2022-11-10T17:48:47.631Z,6.88
2022-11-10T17:51:19.737Z,6.05
2022-11-10T17:53:47.696Z,8.43
2022-11-10T17:56:17.265Z,11.00
2022-11-10T17:58:45.156Z,8.93
2022-11-10T18:01:18.358Z,10.40
2022-11-10T18:03:46.590Z,11.15
2022-11-10T18:06:15.407Z,16.58
2022-11-10T18:08:43.333Z,18.08
2022-11-10T18:11:12.991Z,15.75
2022-11-10T18:13:43.329Z,11.23
2022-11-10T18:16:13.867Z,7.25
2022-11-10T18:18:42.229Z,7.10
2022-11-10T18:21:11.228Z,6.80
2022-11-10T18:23:39.241Z,7.35
2022-11-10T18:26:08.617Z,8.93
2022-11-10T18:28:37.033Z,8.45
2022-11-10T18:31:10.726Z,8.88
2022-11-10T18:33:38.601Z,9.50
2022-11-10T18:36:06.908Z,7.85
2022-11-10T18:38:35.812Z,8.40
2022-11-10T18:41:26.524Z,7.75
2022-11-10T18:43:54.463Z,4.82
2022-11-10T18:46:23.790Z,5.35
2022-11-10T18:48:51.717Z,4.45
2022-11-10T18:51:19.817Z,5.05
2022-11-10T18:53:47.715Z,5.13
2022-11-10T18:56:15.655Z,7.43
2022-11-10T18:58:43.928Z,5.82
2022-11-10T19:01:12.272Z,5.82
2022-11-10T19:03:42.647Z,4.35
2022-11-10T19:06:11.017Z,4.65
2022-11-10T19:08:39.066Z,4.45
2022-11-10T19:11:07.773Z,4.10
2022-11-10T19:13:36.104Z,5.10
2022-11-10T19:16:05.820Z,6.38
2022-11-10T19:18:33.740Z,6.95
2022-11-10T19:21:07.302Z,8.05
2022-11-10T19:23:35.487Z,10.43
2022-11-10T19:26:04.641Z,10.57
2022-11-10T19:28:32.790Z,10.70
2022-11-10T19:31:02.045Z,8.57
2022-11-10T19:33:31.077Z,8.05
2022-11-10T19:36:03.235Z,6.80
2022-11-10T19:38:32.685Z,7.20
2022-11-10T19:41:04.953Z,6.72
2022-11-10T19:43:32.993Z,7.13
2022-11-10T19:46:03.765Z,7.43
2022-11-10T19:48:32.454Z,6.22
2022-11-10T19:51:01.877Z,6.78
2022-11-10T19:53:30.475Z,6.35
2022-11-10T19:56:04.076Z,7.30
2022-11-10T19:58:32.079Z,6.10
2022-11-10T20:01:01.929Z,6.30
2022-11-10T20:03:30.488Z,13.57
2022-11-10T20:05:59.934Z,9.13
2022-11-10T20:08:28.341Z,6.07
2022-11-10T20:11:00.406Z,5.60
2022-11-10T20:13:30.319Z,5.28
2022-11-10T20:15:58.362Z,4.97
2022-11-10T20:18:26.301Z,5.28
2022-11-10T20:20:54.238Z,4.85
2022-11-10T20:23:22.370Z,4.60
2022-11-10T20:25:50.509Z,4.35
2022-11-10T20:28:18.378Z,4.60
2022-11-10T20:30:47.627Z,4.63
2022-11-10T20:33:15.550Z,5.25
2022-11-10T20:35:44.520Z,4.13
2022-11-10T20:38:12.437Z,4.65
2022-11-10T20:40:44.811Z,5.63
2022-11-10T20:43:14.751Z,4.85
2022-11-10T20:45:42.890Z,4.88
2022-11-10T20:48:12.219Z,4.82
2022-11-10T20:50:41.390Z,4.10
2022-11-10T20:53:09.369Z,3.85
2022-11-10T20:55:52.989Z,3.22
2022-11-10T20:58:21.596Z,4.32
2022-11-10T21:00:49.489Z,3.80
2022-11-10T21:03:18.780Z,4.13
2022-11-10T21:05:46.671Z,3.20
2022-11-10T21:08:14.547Z,3.90
2022-11-10T21:10:42.417Z,3.97
2022-11-10T21:13:09.352Z,4.40
2022-11-10T21:15:39.942Z,3.83
2022-11-10T21:18:08.040Z,4.07
2022-11-10T21:20:37.816Z,5.45
2022-11-10T21:23:05.713Z,6.07
2022-11-10T21:25:33.662Z,4.57
2022-11-10T21:28:03.132Z,4.85
2022-11-10T21:30:30.972Z,5.28
2022-11-10T21:32:58.869Z,5.70
2022-11-10T21:35:26.845Z,5.13
2022-11-10T21:37:56.268Z,6.53
2022-11-10T21:40:25.240Z,6.15
2022-11-10T21:42:56.097Z,5.80
2022-11-10T21:45:24.261Z,6.15
2022-11-10T21:47:52.315Z,4.75
2022-11-10T21:50:20.185Z,5.43
2022-11-10T21:52:48.088Z,4.88
2022-11-10T21:55:17.412Z,4.93
2022-11-10T21:57:45.283Z,5.40
2022-11-10T22:00:14.657Z,6.15
2022-11-10T22:02:42.595Z,6.43
2022-11-10T22:05:10.508Z,6.70
2022-11-10T22:07:39.979Z,5.53
2022-11-10T22:10:26.398Z,6.03
2022-11-10T22:13:13.353Z,5.82
2022-11-10T22:15:59.092Z,6.28
2022-11-10T22:18:40.283Z,5.53
2022-11-10T22:21:09.218Z,7.20
2022-11-10T22:23:54.419Z,6.00
2022-11-10T22:26:22.314Z,6.03
2022-11-10T22:28:51.544Z,5.45
2022-11-10T22:31:19.449Z,5.50
2022-11-10T22:33:47.372Z,8.95
2022-11-10T22:36:17.354Z,6.50
2022-11-10T22:38:45.366Z,6.32
2022-11-10T22:41:34.686Z,6.38
2022-11-10T22:44:07.860Z,5.07
2022-11-10T22:46:37.830Z,6.50
2022-11-10T22:49:07.812Z,6.30
2022-11-10T22:51:36.781Z,5.40
2022-11-10T22:54:06.092Z,5.60
2022-11-10T22:56:34.422Z,5.30
2022-11-10T22:59:04.717Z,5.15
2022-11-10T23:01:33.463Z,5.63
2022-11-10T23:04:02.903Z,5.53
2022-11-10T23:06:31.144Z,5.10
2022-11-10T23:09:00.149Z,5.30
2022-11-10T23:11:30.120Z,5.40
2022-11-10T23:13:58.238Z,5.22
2022-11-10T23:16:29.368Z,5.28
2022-11-10T23:18:59.047Z,5.47
2022-11-10T23:21:29.110Z,6.55
2022-11-10T23:23:57.257Z,6.45
2022-11-10T23:26:27.063Z,6.68
2022-11-10T23:28:55.211Z,7.40
2022-11-10T23:31:25.665Z,7.15
2022-11-10T23:33:56.971Z,6.65
2022-11-10T23:36:27.347Z,6.65
2022-11-10T23:38:56.058Z,7.32
2022-11-10T23:41:25.956Z,7.30
2022-11-10T23:43:53.961Z,7.75
2022-11-10T23:46:21.841Z,6.93
2022-11-10T23:48:49.929Z,6.97
2022-11-10T23:51:19.214Z,6.60
2022-11-10T23:53:47.110Z,6.85
2022-11-10T23:56:15.698Z,6.45
2022-11-10T23:58:43.725Z,6.45
